createdAt,value
2019-06-26T00:01:29.889Z,101072.22
2019-06-26T00:05:31.523Z,101071.84
2019-06-26T00:09:35.519Z,101066.75
2019-06-26T00:13:36.416Z,101063.17
2019-06-26T00:17:37.342Z,101070.63
2019-06-26T00:21:38.277Z,101064.16
2019-06-26T00:25:39.217Z,101065.47
2019-06-26T00:29:40.122Z,101066.64
2019-06-26T00:33:41.052Z,101061.89
2019-06-26T00:37:42.085Z,101058.52
2019-06-26T00:41:43.016Z,101064.78
2019-06-26T00:45:43.954Z,101063.06
2019-06-26T00:49:44.854Z,101062.30
2019-06-26T00:53:45.795Z,101065.52
2019-06-26T00:57:46.742Z,101062.98
2019-06-26T01:01:49.670Z,101062.58
2019-06-26T01:05:50.709Z,101071.27
2019-06-26T01:09:51.602Z,101069.79
2019-06-26T01:13:58.161Z,101065.30
2019-06-26T01:17:55.385Z,101062.73
2019-06-26T01:21:56.423Z,101059.88
2019-06-26T01:25:57.334Z,101061.14
2019-06-26T01:30:03.198Z,101066.45
2019-06-26T01:34:04.443Z,101067.84
2019-06-26T01:38:05.372Z,101065.90
2019-06-26T01:42:06.347Z,101068.63
2019-06-26T01:46:07.447Z,101068.34
2019-06-26T01:50:09.150Z,101069.39
2019-06-26T01:54:10.090Z,101065.62
2019-06-26T01:58:11.030Z,101067.69
2019-06-26T02:02:12.000Z,101073.91
2019-06-26T02:06:12.898Z,101077.57
2019-06-26T02:10:14.539Z,101079.25
2019-06-26T02:14:29.947Z,101069.82
2019-06-26T02:18:35.038Z,101070.44
2019-06-26T02:22:36.036Z,101064.27
2019-06-26T02:26:36.929Z,101062.83
2019-06-26T02:30:37.868Z,101064.22
2019-06-26T02:34:38.815Z,101061.69
2019-06-26T02:38:39.805Z,101061.44
2019-06-26T02:42:42.643Z,101063.38
2019-06-26T02:46:43.550Z,101071.13
2019-06-26T02:50:44.471Z,101069.82
2019-06-26T02:54:45.423Z,101067.25
2019-06-26T02:58:46.364Z,101070.24
2019-06-26T03:02:47.340Z,101072.70
2019-06-26T03:06:48.292Z,101082.13
2019-06-26T03:10:49.269Z,101078.17
2019-06-26T03:14:50.206Z,101077.87
2019-06-26T03:18:51.191Z,101080.15
2019-06-26T03:22:52.091Z,101084.32
2019-06-26T03:26:53.028Z,101084.66
2019-06-26T03:30:53.965Z,101088.45
2019-06-26T03:34:54.901Z,101093.39
2019-06-26T03:38:55.845Z,101089.84
2019-06-26T03:42:56.801Z,101094.02
2019-06-26T03:46:57.752Z,101094.48
2019-06-26T03:51:00.594Z,101091.83
2019-06-26T03:55:03.772Z,101096.73
2019-06-26T03:59:04.712Z,101107.06
2019-06-26T04:03:05.643Z,101106.27
2019-06-26T04:07:06.577Z,101101.70
2019-06-26T04:11:09.621Z,101102.41
2019-06-26T04:15:10.750Z,101105.02
2019-06-26T04:19:11.699Z,101110.33
2019-06-26T04:23:12.590Z,101109.60
2019-06-26T04:27:13.521Z,101110.45
2019-06-26T04:31:14.555Z,101118.58
2019-06-26T04:35:17.597Z,101119.83
2019-06-26T04:39:20.580Z,101119.09
2019-06-26T04:43:21.316Z,101130.12
2019-06-26T04:47:24.254Z,101130.34
2019-06-26T04:51:25.203Z,101123.30
2019-06-26T04:55:27.682Z,101127.69
2019-06-26T04:59:30.643Z,101124.08
2019-06-26T05:03:31.449Z,101128.16
2019-06-26T05:07:32.387Z,101131.00
2019-06-26T05:11:33.414Z,101127.24
2019-06-26T05:15:36.271Z,101133.09
2019-06-26T05:19:37.164Z,101129.94
2019-06-26T05:23:38.107Z,101133.06
2019-06-26T05:27:39.362Z,101138.50
2019-06-26T05:31:40.285Z,101131.75
2019-06-26T05:35:41.219Z,101131.35
2019-06-26T05:39:42.117Z,101129.84
2019-06-26T05:43:46.139Z,101137.50
2019-06-26T05:47:47.234Z,101138.67
2019-06-26T05:51:48.148Z,101143.76
2019-06-26T05:55:54.062Z,101147.86
2019-06-26T05:59:54.952Z,101145.70
2019-06-26T06:03:57.269Z,101148.80
2019-06-26T06:07:58.218Z,101155.30
2019-06-26T06:11:59.145Z,101160.92
2019-06-26T06:16:00.090Z,101171.29
2019-06-26T06:20:01.233Z,101174.66
2019-06-26T06:24:03.819Z,101173.58
2019-06-26T06:28:04.745Z,101175.80
2019-06-26T06:32:05.674Z,101185.30
2019-06-26T06:36:09.646Z,101177.16
2019-06-26T06:40:11.454Z,101182.16
2019-06-26T06:44:13.150Z,101187.73
2019-06-26T06:48:14.936Z,101188.61
2019-06-26T06:52:17.484Z,101194.75
2019-06-26T06:56:18.413Z,101200.30
2019-06-26T07:00:19.645Z,101200.16
2019-06-26T07:04:20.674Z,101210.75
2019-06-26T07:08:21.602Z,101206.95
2019-06-26T07:12:22.846Z,101213.94
2019-06-26T07:16:23.798Z,101226.23
2019-06-26T07:20:27.574Z,101226.23
2019-06-26T07:24:28.528Z,101227.45
2019-06-26T07:28:32.561Z,101225.20
2019-06-26T07:32:33.501Z,101228.33
2019-06-26T07:36:34.636Z,101226.49
2019-06-26T07:40:35.527Z,101230.81
2019-06-26T07:44:36.463Z,101231.47
2019-06-26T07:48:39.321Z,101236.81
2019-06-26T07:52:40.353Z,101236.19
2019-06-26T07:56:41.288Z,101240.52
2019-06-26T08:00:42.229Z,101249.40
2019-06-26T08:04:43.150Z,101247.59
2019-06-26T08:08:45.447Z,101249.97
2019-06-26T08:12:46.415Z,101249.20
2019-06-26T08:16:47.349Z,101251.72
2019-06-26T08:21:00.749Z,101255.95
2019-06-26T08:24:51.084Z,101262.09
2019-06-26T08:28:52.013Z,101261.98
2019-06-26T08:32:52.935Z,101260.52
2019-06-26T08:36:53.870Z,101261.00
2019-06-26T08:40:54.861Z,101261.47
2019-06-26T08:44:55.787Z,101266.04
2019-06-26T08:48:56.814Z,101272.06
2019-06-26T08:52:57.750Z,101269.70
2019-06-26T08:56:58.691Z,101269.15
2019-06-26T09:01:01.562Z,101275.17
2019-06-26T09:05:04.615Z,101279.04
2019-06-26T09:09:06.397Z,101284.05
2019-06-26T09:13:07.326Z,101281.05
2019-06-26T09:17:10.211Z,101285.12
2019-06-26T09:21:11.143Z,101280.13
2019-06-26T09:25:21.739Z,101287.25
2019-06-26T09:29:15.079Z,101287.66
2019-06-26T09:33:16.015Z,101278.56
2019-06-26T09:37:18.894Z,101270.14
2019-06-26T09:41:19.877Z,101284.59
2019-06-26T09:45:20.818Z,101291.20
2019-06-26T09:49:21.722Z,101291.44
2019-06-26T09:53:22.663Z,101299.77
2019-06-26T09:57:26.588Z,101289.16
2019-06-26T10:01:27.515Z,101294.69
2019-06-26T10:05:28.448Z,101299.84
2019-06-26T10:09:29.441Z,101301.06
2019-06-26T10:13:30.337Z,101300.89
2019-06-26T10:17:32.525Z,101305.47
2019-06-26T10:21:33.641Z,101304.78
2019-06-26T10:25:36.148Z,101314.64
2019-06-26T10:29:37.072Z,101305.06
2019-06-26T10:33:38.078Z,101303.33
2019-06-26T10:37:39.709Z,101303.55
2019-06-26T10:41:40.836Z,101318.64
2019-06-26T10:45:41.781Z,101313.89
2019-06-26T10:49:42.740Z,101316.77
2019-06-26T10:53:43.678Z,101322.02
2019-06-26T10:57:44.631Z,101333.31
2019-06-26T11:01:45.578Z,101323.40
2019-06-26T11:05:46.483Z,101311.67
2019-06-26T11:09:47.420Z,101317.89
2019-06-26T11:13:48.339Z,101307.91
2019-06-26T11:17:49.271Z,101313.64
2019-06-26T11:21:50.208Z,101307.23
2019-06-26T11:25:51.139Z,101307.05
2019-06-26T11:29:52.070Z,101314.03
2019-06-26T11:33:53.083Z,101304.66
2019-06-26T11:37:54.022Z,101307.38
2019-06-26T11:41:54.947Z,101303.89
2019-06-26T11:45:56.004Z,101301.77
2019-06-26T11:50:00.097Z,101296.16
2019-06-26T11:53:59.750Z,101296.09
2019-06-26T11:58:00.784Z,101302.14
2019-06-26T12:02:01.714Z,101289.29
2019-06-26T12:06:17.745Z,101293.64
2019-06-26T12:10:07.951Z,101291.10
2019-06-26T12:14:09.001Z,101275.97
2019-06-26T12:18:09.950Z,101280.81
2019-06-26T12:22:10.910Z,101278.58
2019-06-26T12:26:11.846Z,101273.84
2019-06-26T12:30:13.266Z,101266.49
2019-06-26T12:34:14.205Z,101270.58
2019-06-26T12:38:15.132Z,101261.51
2019-06-26T12:42:16.082Z,101260.73
2019-06-26T12:46:18.276Z,101267.92
2019-06-26T12:50:34.767Z,101265.91
2019-06-26T12:54:27.311Z,101266.25
2019-06-26T12:58:29.108Z,101265.73
2019-06-26T13:02:30.181Z,101265.24
2019-06-26T13:06:31.120Z,101267.20
2019-06-26T13:10:39.258Z,101256.78
2019-06-26T13:14:34.863Z,101257.43
2019-06-26T13:18:36.110Z,101266.61
2019-06-26T13:22:37.131Z,101260.47
2019-06-26T13:26:38.076Z,101263.68
2019-06-26T13:30:39.710Z,101263.33
2019-06-26T13:34:40.614Z,101262.24
2019-06-26T13:38:41.545Z,101259.55
2019-06-26T13:42:42.479Z,101264.36
2019-06-26T13:46:43.478Z,101264.26
2019-06-26T13:50:44.469Z,101253.81
2019-06-26T13:54:45.354Z,101256.54
2019-06-26T13:58:46.304Z,101261.29
2019-06-26T14:02:47.206Z,101254.08
2019-06-26T14:06:48.163Z,101243.75
2019-06-26T14:10:49.090Z,101251.73
2019-06-26T14:14:57.396Z,101261.47
2019-06-26T14:18:53.127Z,101251.04
2019-06-26T14:22:54.068Z,101252.14
2019-06-26T14:26:54.993Z,101261.63
2019-06-26T14:30:55.925Z,101261.77
2019-06-26T14:34:56.866Z,101253.22
2019-06-26T14:38:57.758Z,101257.97
2019-06-26T14:42:58.699Z,101254.45
2019-06-26T14:46:59.622Z,101261.81
2019-06-26T14:51:00.563Z,101265.20
2019-06-26T14:55:01.589Z,101270.45
2019-06-26T14:59:02.778Z,101270.79
2019-06-26T15:03:03.727Z,101268.23
2019-06-26T15:07:04.777Z,101273.91
2019-06-26T15:11:05.730Z,101272.75
2019-06-26T15:15:07.850Z,101276.41
2019-06-26T15:19:08.903Z,101283.12
2019-06-26T15:23:09.940Z,101277.64
2019-06-26T15:27:10.873Z,101281.20
2019-06-26T15:31:11.901Z,101285.59
2019-06-26T15:35:13.764Z,101284.79
2019-06-26T15:39:14.674Z,101284.36
2019-06-26T15:43:15.707Z,101288.84
2019-06-26T15:47:16.634Z,101292.78
2019-06-26T15:51:17.571Z,101292.34
2019-06-26T15:55:18.517Z,101298.95
2019-06-26T15:59:19.550Z,101288.60
2019-06-26T16:03:20.504Z,101305.94
2019-06-26T16:07:21.445Z,101297.49
2019-06-26T16:11:22.381Z,101301.22
2019-06-26T16:15:23.302Z,101305.15
2019-06-26T16:19:25.552Z,101309.05
2019-06-26T16:23:26.443Z,101308.80
2019-06-26T16:27:27.380Z,101315.16
2019-06-26T16:31:28.325Z,101312.81
2019-06-26T16:35:29.265Z,101317.73
2019-06-26T16:39:30.193Z,101324.50
2019-06-26T16:43:31.100Z,101329.70
2019-06-26T16:47:32.030Z,101331.25
2019-06-26T16:51:32.977Z,101340.34
2019-06-26T16:55:33.916Z,101340.64
2019-06-26T16:59:34.856Z,101351.27
2019-06-26T17:03:35.753Z,101359.78
2019-06-26T17:07:36.680Z,101355.80
2019-06-26T17:11:37.852Z,101360.05
2019-06-26T17:15:38.773Z,101357.30
2019-06-26T17:19:39.808Z,101358.20
2019-06-26T17:23:40.803Z,101359.91
2019-06-26T17:27:41.841Z,101359.00
2019-06-26T17:31:42.785Z,101372.34
2019-06-26T17:35:43.719Z,101371.57
2019-06-26T17:39:44.665Z,101375.56
2019-06-26T17:43:45.571Z,101378.73
2019-06-26T17:47:46.507Z,101387.20
2019-06-26T17:51:47.443Z,101390.88
2019-06-26T17:55:48.385Z,101395.67
2019-06-26T17:59:49.339Z,101404.95
2019-06-26T18:03:50.271Z,101410.02
2019-06-26T18:07:51.183Z,101412.54
2019-06-26T18:11:52.126Z,101413.11
2019-06-26T18:15:53.061Z,101424.02
2019-06-26T18:19:54.085Z,101418.38
2019-06-26T18:23:55.013Z,101419.77
2019-06-26T18:27:56.301Z,101434.05
2019-06-26T18:31:57.393Z,101437.30
2019-06-26T18:35:58.431Z,101442.83
2019-06-26T18:39:59.378Z,101454.83
2019-06-26T18:44:00.304Z,101444.83
2019-06-26T18:48:01.204Z,101443.87
2019-06-26T18:52:02.240Z,101454.36
2019-06-26T18:56:03.451Z,101456.73
2019-06-26T19:00:05.930Z,101459.69
2019-06-26T19:04:06.972Z,101470.14
2019-06-26T19:08:07.876Z,101483.98
2019-06-26T19:12:08.803Z,101488.03
2019-06-26T19:16:09.742Z,101483.97
2019-06-26T19:20:11.985Z,101500.50
2019-06-26T19:24:12.921Z,101497.47
2019-06-26T19:28:13.818Z,101514.32
2019-06-26T19:32:14.746Z,101523.24
2019-06-26T19:36:15.677Z,101520.23
2019-06-26T19:40:16.819Z,101533.92
2019-06-26T19:44:17.751Z,101536.98
2019-06-26T19:48:18.661Z,101537.65
2019-06-26T19:52:19.649Z,101533.84
2019-06-26T19:56:20.836Z,101531.98
2019-06-26T20:00:21.984Z,101552.95
2019-06-26T20:04:22.919Z,101553.95
2019-06-26T20:08:23.820Z,101551.43
2019-06-26T20:12:24.757Z,101558.69
2019-06-26T20:16:25.798Z,101562.78
2019-06-26T20:20:26.731Z,101569.13
2019-06-26T20:24:43.009Z,101577.25
2019-06-26T20:28:30.482Z,101573.30
2019-06-26T20:32:31.424Z,101580.75
2019-06-26T20:36:32.432Z,101578.27
2019-06-26T20:40:33.464Z,101583.70
2019-06-26T20:44:34.437Z,101584.23
2019-06-26T20:48:35.332Z,101590.61
2019-06-26T20:52:36.497Z,101595.22
2019-06-26T20:56:37.439Z,101595.11
2019-06-26T21:00:38.383Z,101605.20
2019-06-26T21:04:39.297Z,101613.84
2019-06-26T21:08:40.228Z,101611.83
2019-06-26T21:12:41.188Z,101621.98
2019-06-26T21:16:42.125Z,101627.59
2019-06-26T21:20:43.051Z,101639.70
2019-06-26T21:24:44.019Z,101646.58
2019-06-26T21:28:44.914Z,101642.45
2019-06-26T21:32:45.847Z,101654.23
2019-06-26T21:36:46.787Z,101662.72
2019-06-26T21:40:47.727Z,101667.39
2019-06-26T21:44:48.668Z,101674.78
2019-06-26T21:48:49.563Z,101678.09
2019-06-26T21:52:50.528Z,101682.25
2019-06-26T21:56:51.622Z,101689.91
2019-06-26T22:00:52.768Z,101685.09
2019-06-26T22:04:53.702Z,101688.30
2019-06-26T22:08:54.629Z,101689.47
2019-06-26T22:12:55.547Z,101693.95
2019-06-26T22:16:56.485Z,101693.73
2019-06-26T22:20:57.422Z,101696.60
2019-06-26T22:24:58.369Z,101701.27
2019-06-26T22:28:59.275Z,101697.75
2019-06-26T22:33:00.203Z,101692.11
2019-06-26T22:37:01.133Z,101704.93
2019-06-26T22:41:02.088Z,101701.02
2019-06-26T22:45:04.429Z,101703.66
2019-06-26T22:49:05.379Z,101706.69
2019-06-26T22:53:06.323Z,101709.20
2019-06-26T22:57:07.300Z,101706.16
2019-06-26T23:01:08.337Z,101708.81
2019-06-26T23:05:09.618Z,101703.19
2019-06-26T23:09:10.553Z,101711.74
2019-06-26T23:13:11.463Z,101712.23
2019-06-26T23:17:12.400Z,101717.85
2019-06-26T23:21:13.339Z,101717.11
2019-06-26T23:25:14.374Z,101719.67
2019-06-26T23:29:15.305Z,101720.20
2019-06-26T23:33:16.202Z,101720.73
2019-06-26T23:37:17.132Z,101720.83
2019-06-26T23:41:18.216Z,101721.19
2019-06-26T23:45:19.153Z,101720.45
2019-06-26T23:49:20.075Z,101721.05
2019-06-26T23:53:21.027Z,101715.70
2019-06-26T23:57:21.957Z,101718.20
